createdAt,value
2023-05-19T00:02:28.164Z,100.00
2023-05-19T00:05:45.608Z,100.00
2023-05-19T00:09:16.080Z,100.00
2023-05-19T00:12:28.737Z,100.00
2023-05-19T00:15:41.501Z,100.00
2023-05-19T00:18:54.450Z,100.00
2023-05-19T00:22:06.884Z,100.00
2023-05-19T00:25:19.628Z,100.00
2023-05-19T00:28:31.999Z,100.00
2023-05-19T00:31:45.000Z,100.00
2023-05-19T00:34:57.413Z,100.00
2023-05-19T00:38:10.110Z,100.00
2023-05-19T00:41:22.849Z,100.00
2023-05-19T00:44:37.999Z,100.00
2023-05-19T00:47:50.444Z,100.00
2023-05-19T00:51:04.700Z,100.00
2023-05-19T00:54:17.394Z,100.00
2023-05-19T00:57:30.139Z,100.00
2023-05-19T01:00:43.427Z,100.00
2023-05-19T01:03:59.189Z,100.00
2023-05-19T01:07:12.599Z,100.00
2023-05-19T01:10:25.455Z,100.00
2023-05-19T01:13:40.347Z,100.00
2023-05-19T01:17:08.195Z,100.00
2023-05-19T01:20:27.311Z,100.00
2023-05-19T01:24:09.203Z,100.00
2023-05-19T01:27:38.921Z,100.00
2023-05-19T01:30:55.663Z,100.00
2023-05-19T01:34:08.147Z,100.00
2023-05-19T01:37:20.786Z,100.00
2023-05-19T01:40:33.494Z,100.00
2023-05-19T01:43:46.590Z,100.00
2023-05-19T01:46:59.132Z,100.00
2023-05-19T01:50:11.861Z,100.00
2023-05-19T01:53:24.619Z,100.00
2023-05-19T01:57:04.377Z,100.00
2023-05-19T02:01:01.479Z,100.00
2023-05-19T02:04:39.910Z,100.00
2023-05-19T02:08:06.560Z,100.00
2023-05-19T02:11:46.260Z,100.00
2023-05-19T02:15:15.941Z,100.00
2023-05-19T02:18:29.998Z,100.00
2023-05-19T02:21:42.715Z,100.00
2023-05-19T02:24:56.568Z,100.00
2023-05-19T02:28:09.862Z,100.00
2023-05-19T02:31:22.298Z,100.00
2023-05-19T02:34:34.986Z,100.00
2023-05-19T02:37:49.982Z,100.00
2023-05-19T02:41:02.765Z,100.00
2023-05-19T02:44:15.380Z,100.00
2023-05-19T02:47:28.120Z,100.00
2023-05-19T02:50:40.618Z,100.00
2023-05-19T02:53:53.360Z,100.00
2023-05-19T02:57:06.835Z,100.00
2023-05-19T03:00:20.151Z,100.00
2023-05-19T03:03:32.971Z,100.00
2023-05-19T03:06:46.737Z,100.00
2023-05-19T03:09:59.170Z,100.00
2023-05-19T03:13:11.924Z,100.00
2023-05-19T03:16:24.759Z,100.00
2023-05-19T03:19:37.606Z,100.00
2023-05-19T03:22:50.167Z,100.00
2023-05-19T03:26:03.148Z,100.00
2023-05-19T03:29:16.533Z,100.00
2023-05-19T03:32:29.725Z,100.00
2023-05-19T03:35:42.271Z,100.00
2023-05-19T03:38:55.052Z,100.00
2023-05-19T03:42:07.576Z,100.00
2023-05-19T03:45:21.187Z,100.00
2023-05-19T03:48:34.714Z,100.00
2023-05-19T03:51:49.004Z,100.00
2023-05-19T03:55:01.936Z,100.00
2023-05-19T03:58:15.017Z,100.00
2023-05-19T04:01:27.462Z,100.00
2023-05-19T04:04:40.225Z,100.00
2023-05-19T04:07:52.640Z,100.00
2023-05-19T04:11:05.388Z,100.00
2023-05-19T04:14:17.842Z,100.00
2023-05-19T04:17:30.683Z,100.00
2023-05-19T04:20:43.178Z,100.00
2023-05-19T04:23:55.865Z,100.00
2023-05-19T04:27:12.032Z,100.00
2023-05-19T04:30:25.507Z,100.00
2023-05-19T04:33:38.988Z,100.00
2023-05-19T04:36:53.333Z,100.00
2023-05-19T04:40:09.425Z,100.00
2023-05-19T04:43:22.353Z,100.00
2023-05-19T04:46:36.251Z,100.00
2023-05-19T04:49:49.326Z,100.00
2023-05-19T04:53:01.701Z,100.00
2023-05-19T04:56:15.655Z,100.00
2023-05-19T04:59:29.260Z,100.00
2023-05-19T05:02:42.954Z,100.00
2023-05-19T05:05:56.771Z,100.00
2023-05-19T05:09:10.536Z,100.00
2023-05-19T05:12:23.330Z,100.00
2023-05-19T05:15:36.422Z,100.00
2023-05-19T05:18:50.767Z,100.00
2023-05-19T05:22:04.474Z,100.00
2023-05-19T05:25:17.870Z,100.00
2023-05-19T05:28:31.491Z,100.00
2023-05-19T05:31:44.094Z,100.00
2023-05-19T05:34:56.887Z,100.00
2023-05-19T05:38:11.840Z,100.00
2023-05-19T05:41:28.118Z,100.00
2023-05-19T05:44:41.269Z,100.00
2023-05-19T05:47:54.945Z,100.00
2023-05-19T05:51:09.339Z,100.00
2023-05-19T05:54:22.724Z,100.00
2023-05-19T05:57:36.627Z,100.00
2023-05-19T06:00:51.537Z,100.00
2023-05-19T06:04:04.552Z,100.00
2023-05-19T06:07:17.458Z,100.00
2023-05-19T06:10:30.803Z,100.00
2023-05-19T06:13:44.405Z,100.00
2023-05-19T06:16:58.675Z,100.00
2023-05-19T06:20:13.068Z,100.00
2023-05-19T06:23:29.183Z,100.00
2023-05-19T06:26:41.662Z,100.00
2023-05-19T06:29:55.841Z,100.00
2023-05-19T06:33:08.393Z,100.00
2023-05-19T06:36:21.124Z,100.00
2023-05-19T06:39:35.594Z,100.00
2023-05-19T06:42:49.028Z,100.00
2023-05-19T06:46:01.984Z,100.00
2023-05-19T06:49:15.069Z,100.00
2023-05-19T06:52:28.374Z,100.00
2023-05-19T06:55:54.387Z,100.00
2023-05-19T06:59:11.371Z,100.00
2023-05-19T07:02:24.280Z,100.00
2023-05-19T07:05:36.707Z,100.00
2023-05-19T07:08:50.370Z,100.00
2023-05-19T07:12:03.734Z,100.00
2023-05-19T07:15:16.557Z,100.00
2023-05-19T07:18:31.972Z,100.00
2023-05-19T07:21:44.884Z,100.00
2023-05-19T07:24:57.471Z,100.00
2023-05-19T07:28:10.269Z,100.00
2023-05-19T07:31:22.775Z,100.00
2023-05-19T07:34:35.716Z,100.00
2023-05-19T07:37:48.985Z,100.00
2023-05-19T07:41:02.357Z,100.00
2023-05-19T07:44:15.079Z,100.00
2023-05-19T07:47:27.825Z,100.00
2023-05-19T07:50:40.290Z,100.00
2023-05-19T07:53:53.372Z,100.00
2023-05-19T07:57:06.083Z,100.00
2023-05-19T08:00:18.957Z,100.00
2023-05-19T08:03:32.112Z,98.84
2023-05-19T08:06:44.733Z,97.31
2023-05-19T08:09:58.658Z,98.08
2023-05-19T08:13:11.065Z,95.20
2023-05-19T08:16:27.026Z,94.05
2023-05-19T08:19:39.499Z,94.41
2023-05-19T08:22:52.211Z,96.86
2023-05-19T08:26:05.289Z,95.00
2023-05-19T08:29:17.995Z,91.01
2023-05-19T08:32:31.522Z,91.06
2023-05-19T08:35:44.273Z,89.98
2023-05-19T08:38:56.672Z,87.16
2023-05-19T08:42:10.050Z,87.98
2023-05-19T08:45:23.280Z,88.22
2023-05-19T08:48:36.000Z,91.80
2023-05-19T08:52:10.045Z,89.42
2023-05-19T08:56:04.256Z,88.62
2023-05-19T08:59:16.675Z,86.68
2023-05-19T09:02:29.511Z,87.66
2023-05-19T09:05:42.030Z,84.27
2023-05-19T09:08:57.049Z,80.07
2023-05-19T09:12:12.812Z,80.19
2023-05-19T09:15:27.413Z,82.89
2023-05-19T09:18:42.642Z,83.89
2023-05-19T09:22:03.429Z,85.81
2023-05-19T09:25:25.561Z,83.69
2023-05-19T09:28:39.515Z,84.11
2023-05-19T09:32:00.512Z,86.15
2023-05-19T09:35:13.794Z,85.28
2023-05-19T09:38:29.465Z,78.22
2023-05-19T09:41:42.461Z,74.02
2023-05-19T09:45:04.111Z,76.83
2023-05-19T09:48:16.956Z,76.67
2023-05-19T09:51:29.623Z,75.12
2023-05-19T09:54:42.333Z,74.42
2023-05-19T09:57:57.788Z,74.01
2023-05-19T10:01:10.492Z,73.31
2023-05-19T10:04:27.098Z,75.49
2023-05-19T10:07:40.571Z,73.88
2023-05-19T10:10:53.279Z,72.86
2023-05-19T10:14:05.829Z,75.14
2023-05-19T10:17:18.541Z,78.01
2023-05-19T10:20:31.121Z,77.33
2023-05-19T10:23:43.976Z,75.76
2023-05-19T10:27:05.613Z,75.06
2023-05-19T10:30:21.062Z,75.73
2023-05-19T10:34:07.812Z,72.10
2023-05-19T10:37:29.089Z,70.25
2023-05-19T10:41:04.119Z,71.14
2023-05-19T10:44:21.431Z,71.99
2023-05-19T10:47:35.039Z,75.29
2023-05-19T10:50:47.961Z,73.16
2023-05-19T10:54:06.293Z,71.82
2023-05-19T10:57:19.004Z,70.86
2023-05-19T11:00:31.915Z,73.48
2023-05-19T11:03:49.181Z,71.04
2023-05-19T11:07:02.138Z,69.81
2023-05-19T11:10:15.025Z,65.95
2023-05-19T11:16:45.915Z,62.43
2023-05-19T11:19:59.445Z,59.97
2023-05-19T11:23:15.869Z,61.73
2023-05-19T11:26:46.400Z,62.18
2023-05-19T11:30:05.435Z,62.45
2023-05-19T11:33:20.711Z,59.87
2023-05-19T11:36:34.013Z,59.23
2023-05-19T11:39:47.093Z,58.75
2023-05-19T11:43:01.850Z,57.23
2023-05-19T11:46:17.539Z,57.39
2023-05-19T11:49:32.174Z,55.27
2023-05-19T11:52:45.052Z,56.27
2023-05-19T11:55:58.132Z,57.41
2023-05-19T11:59:10.904Z,54.38
2023-05-19T12:02:27.782Z,57.33
2023-05-19T12:05:45.872Z,56.48
2023-05-19T12:08:59.278Z,55.78
2023-05-19T12:12:17.108Z,58.44
2023-05-19T12:15:29.634Z,55.61
2023-05-19T12:18:42.471Z,54.16
2023-05-19T12:21:55.111Z,53.49
2023-05-19T12:25:08.102Z,52.11
2023-05-19T12:28:20.838Z,50.46
2023-05-19T12:31:34.478Z,52.42
2023-05-19T12:34:47.527Z,49.53
2023-05-19T12:38:04.819Z,49.59
2023-05-19T12:41:17.327Z,51.00
2023-05-19T12:44:31.495Z,51.11
2023-05-19T12:47:48.382Z,53.01
2023-05-19T12:51:01.181Z,50.02
2023-05-19T12:54:13.688Z,49.33
2023-05-19T12:57:27.074Z,48.52
2023-05-19T13:00:44.989Z,48.97
2023-05-19T13:03:58.005Z,47.93
2023-05-19T13:07:10.630Z,49.27
2023-05-19T13:10:23.541Z,46.78
2023-05-19T13:13:36.057Z,47.35
2023-05-19T13:16:48.902Z,46.78
2023-05-19T13:20:01.385Z,46.76
2023-05-19T13:23:14.296Z,44.49
2023-05-19T13:26:26.791Z,44.20
2023-05-19T13:29:39.473Z,44.34
2023-05-19T13:32:52.798Z,42.66
2023-05-19T13:36:07.642Z,43.03
2023-05-19T13:39:20.028Z,42.14
2023-05-19T13:42:33.456Z,42.76
2023-05-19T13:45:46.035Z,43.87
2023-05-19T13:48:58.783Z,43.48
2023-05-19T13:52:11.655Z,44.33
2023-05-19T13:55:26.285Z,43.15
2023-05-19T13:58:38.740Z,42.09
2023-05-19T14:01:51.566Z,42.39
2023-05-19T14:05:04.881Z,43.62
2023-05-19T14:08:17.432Z,44.20
2023-05-19T14:11:30.137Z,45.88
2023-05-19T14:14:42.597Z,47.91
2023-05-19T14:17:55.348Z,48.41
2023-05-19T14:21:08.345Z,47.39
2023-05-19T14:24:21.051Z,45.76
2023-05-19T14:27:33.446Z,45.17
2023-05-19T14:30:46.284Z,45.77
2023-05-19T14:33:58.645Z,48.76
2023-05-19T14:37:14.336Z,47.47
2023-05-19T14:40:26.815Z,47.97
2023-05-19T14:43:42.142Z,48.55
2023-05-19T14:46:54.610Z,49.24
2023-05-19T14:50:07.488Z,48.13
2023-05-19T14:53:23.020Z,48.17
2023-05-19T14:56:35.777Z,49.14
2023-05-19T14:59:48.245Z,48.17
2023-05-19T15:03:02.046Z,48.95
2023-05-19T15:06:19.071Z,49.83
2023-05-19T15:09:31.830Z,49.95
2023-05-19T15:12:44.286Z,50.57
2023-05-19T15:16:12.561Z,51.23
2023-05-19T15:19:29.156Z,51.43
2023-05-19T15:22:41.935Z,51.02
2023-05-19T15:25:54.767Z,51.90
2023-05-19T15:29:07.459Z,52.90
2023-05-19T15:32:20.254Z,52.15
2023-05-19T15:35:32.947Z,52.02
2023-05-19T15:38:45.478Z,51.75
2023-05-19T15:41:58.158Z,52.97
2023-05-19T15:45:10.674Z,52.62
2023-05-19T15:48:28.789Z,53.44
2023-05-19T15:51:41.262Z,52.98
2023-05-19T15:54:55.234Z,52.92
2023-05-19T15:58:08.908Z,53.73
2023-05-19T16:01:21.746Z,54.40
2023-05-19T16:04:36.562Z,55.33
2023-05-19T16:07:49.011Z,55.32
2023-05-19T16:11:01.708Z,54.20
2023-05-19T16:14:14.688Z,54.94
2023-05-19T16:17:28.763Z,55.07
2023-05-19T16:20:41.226Z,54.42
2023-05-19T16:23:53.918Z,53.37
2023-05-19T16:27:06.316Z,55.52
2023-05-19T16:30:19.067Z,54.91
2023-05-19T16:33:31.444Z,55.44
2023-05-19T16:36:44.133Z,56.51
2023-05-19T16:39:56.590Z,59.01
2023-05-19T16:43:09.373Z,57.92
2023-05-19T16:46:21.914Z,58.13
2023-05-19T16:49:37.834Z,58.25
2023-05-19T16:52:50.967Z,58.84
2023-05-19T16:56:03.858Z,59.85
2023-05-19T16:59:17.272Z,60.38
2023-05-19T17:02:30.055Z,61.23
2023-05-19T17:05:43.489Z,61.59
2023-05-19T17:08:56.245Z,63.31
2023-05-19T17:12:09.054Z,63.58
2023-05-19T17:15:21.768Z,67.79
2023-05-19T17:18:36.673Z,66.94
2023-05-19T17:21:49.547Z,69.33
2023-05-19T17:25:01.978Z,69.45
2023-05-19T17:28:15.997Z,68.59
2023-05-19T17:31:28.418Z,68.01
2023-05-19T17:34:41.904Z,68.42
2023-05-19T17:37:54.381Z,73.63
2023-05-19T17:41:10.473Z,73.99
2023-05-19T17:44:25.697Z,74.50
2023-05-19T17:47:40.828Z,75.35
2023-05-19T17:50:53.252Z,77.88
2023-05-19T17:54:09.060Z,82.75
2023-05-19T17:57:21.438Z,86.14
2023-05-19T18:00:34.494Z,88.79
2023-05-19T18:03:49.805Z,91.61
2023-05-19T18:07:06.042Z,94.57
2023-05-19T18:10:21.200Z,94.72
2023-05-19T18:13:33.668Z,95.84
2023-05-19T18:16:47.433Z,97.74
2023-05-19T18:19:59.929Z,97.50
2023-05-19T18:23:12.597Z,99.35
2023-05-19T18:26:24.956Z,100.00
2023-05-19T18:29:37.749Z,100.00
2023-05-19T18:32:50.216Z,100.00
2023-05-19T18:36:02.954Z,100.00
2023-05-19T18:39:15.404Z,100.00
2023-05-19T18:42:28.114Z,100.00
2023-05-19T18:45:40.571Z,100.00
2023-05-19T18:48:53.326Z,100.00
2023-05-19T18:52:05.956Z,100.00
2023-05-19T18:55:18.649Z,100.00
2023-05-19T18:58:31.137Z,100.00
2023-05-19T19:01:43.922Z,100.00
2023-05-19T19:04:56.518Z,100.00
2023-05-19T19:08:09.220Z,100.00
2023-05-19T19:11:22.500Z,100.00
2023-05-19T19:14:35.169Z,100.00
2023-05-19T19:17:47.601Z,100.00
2023-05-19T19:21:02.576Z,100.00
2023-05-19T19:24:15.301Z,100.00
2023-05-19T19:27:31.122Z,100.00
2023-05-19T19:30:44.482Z,100.00
2023-05-19T19:33:58.999Z,100.00
2023-05-19T19:37:11.502Z,100.00
2023-05-19T19:40:25.085Z,100.00
2023-05-19T19:43:37.533Z,100.00
2023-05-19T19:46:50.608Z,100.00
2023-05-19T19:50:05.766Z,100.00
2023-05-19T19:53:18.491Z,100.00
2023-05-19T19:56:30.929Z,100.00
2023-05-19T19:59:43.785Z,100.00
2023-05-19T20:03:04.983Z,100.00
2023-05-19T20:06:18.480Z,100.00
2023-05-19T20:09:31.108Z,100.00
2023-05-19T20:12:43.808Z,100.00
2023-05-19T20:15:56.302Z,100.00
2023-05-19T20:19:09.418Z,100.00
2023-05-19T20:22:23.248Z,100.00
2023-05-19T20:25:53.703Z,100.00
2023-05-19T20:29:11.260Z,100.00
2023-05-19T20:32:24.019Z,100.00
2023-05-19T20:35:36.469Z,100.00
2023-05-19T20:38:49.134Z,100.00
2023-05-19T20:42:01.569Z,100.00
2023-05-19T20:45:14.269Z,100.00
2023-05-19T20:48:26.826Z,100.00
2023-05-19T20:51:39.516Z,100.00
2023-05-19T20:54:51.950Z,100.00
2023-05-19T20:58:04.628Z,100.00
2023-05-19T21:01:17.291Z,100.00
2023-05-19T21:04:30.185Z,100.00
2023-05-19T21:07:42.652Z,100.00
2023-05-19T21:10:55.622Z,100.00
2023-05-19T21:14:08.273Z,100.00
2023-05-19T21:17:21.314Z,100.00
2023-05-19T21:20:33.833Z,100.00
2023-05-19T21:23:46.806Z,100.00
2023-05-19T21:26:59.193Z,100.00
2023-05-19T21:30:12.930Z,100.00
2023-05-19T21:33:25.514Z,100.00
2023-05-19T21:36:38.177Z,100.00
2023-05-19T21:39:50.778Z,100.00
2023-05-19T21:43:03.691Z,100.00
2023-05-19T21:46:16.079Z,100.00
2023-05-19T21:49:28.825Z,100.00
2023-05-19T21:52:41.393Z,100.00
2023-05-19T21:55:54.118Z,100.00
2023-05-19T21:59:07.014Z,100.00
2023-05-19T22:02:19.711Z,100.00
2023-05-19T22:05:35.106Z,100.00
2023-05-19T22:08:47.544Z,100.00
2023-05-19T22:12:00.224Z,100.00
2023-05-19T22:15:13.569Z,100.00
2023-05-19T22:18:26.290Z,100.00
2023-05-19T22:21:38.709Z,100.00
2023-05-19T22:24:51.418Z,100.00
2023-05-19T22:28:05.690Z,100.00
2023-05-19T22:31:18.471Z,100.00
2023-05-19T22:34:30.940Z,100.00
2023-05-19T22:37:43.668Z,100.00
2023-05-19T22:40:56.045Z,100.00
2023-05-19T22:44:10.403Z,100.00
2023-05-19T22:47:22.953Z,100.00
2023-05-19T22:50:35.632Z,100.00
2023-05-19T22:53:48.984Z,100.00
2023-05-19T22:57:01.784Z,100.00
2023-05-19T23:00:14.404Z,100.00
2023-05-19T23:03:27.080Z,100.00
2023-05-19T23:06:39.473Z,100.00
2023-05-19T23:09:52.159Z,100.00
2023-05-19T23:13:04.864Z,100.00
2023-05-19T23:16:17.552Z,100.00
2023-05-19T23:19:31.956Z,100.00
2023-05-19T23:22:44.701Z,100.00
2023-05-19T23:25:57.094Z,100.00
2023-05-19T23:29:13.314Z,100.00
2023-05-19T23:32:25.959Z,100.00
2023-05-19T23:35:39.656Z,100.00
2023-05-19T23:38:52.072Z,100.00
2023-05-19T23:42:05.762Z,100.00
2023-05-19T23:45:18.265Z,100.00
2023-05-19T23:48:31.352Z,100.00
2023-05-19T23:51:43.792Z,100.00
2023-05-19T23:54:56.489Z,100.00
2023-05-19T23:58:08.911Z,100.00
